aviador You're here:

KDET Decoded Metar

DETROIT in MI, USA
Report Time2018-05-27 00:53:00
UTC Time2018-05-27 01:21:58
Flight Rules vfr VFR
Wind150° at 04 kt
W.Decomp.*RWY 15: 4.0 kt HW 0.3 kt RCW
RWY 07: 0.3 kt HW 4.0 kt RCW
W.Rank150° ranks 32
Current wind is below 150° avg. (6.1)
Visibility9999 m
Phenomena:N/A
Clouds:N/A
Expected CloudBase > 3,200 ft AGL from Temp-Dew spread
CeilingNone
Temp24°C (ISA +10)
Dew Point16°C (61% RH)
QNH1009 hPa
Density Alt2,188 ft
Elevation623 ft
Report Wrong Elevation
Raw Report
KDET 270053Z 15004KT 10SM CLR 24/16 A2979 RMK AO2 SLP084
T02390161=

Extra information for KDET:More info

Metar Taf Metar & Taf Last 4 Metars F.Rules Stats Wind Profile Meteogram Temp Stats Airport Information Weather charts Add Link Nearby VenuesMetar ALERT Operation Metar Decoded Social comments

AIRNAV info for KDET